createdAt,value
2019-03-21T00:00:22.910Z,57.57
2019-03-21T00:02:55.402Z,60.70
2019-03-21T00:05:27.140Z,64.50
2019-03-21T00:07:57.956Z,72.37
2019-03-21T00:11:27.062Z,67.60
2019-03-21T00:14:06.929Z,67.93
2019-03-21T00:16:32.516Z,65.50
2019-03-21T00:19:02.734Z,64.97
2019-03-21T00:21:32.955Z,60.87
2019-03-21T00:24:03.253Z,66.53
2019-03-21T00:26:33.754Z,66.80
2019-03-21T00:29:04.346Z,68.23
2019-03-21T00:31:34.452Z,67.27
2019-03-21T00:34:04.765Z,65.03
2019-03-21T00:36:35.213Z,61.90
2019-03-21T00:39:07.488Z,64.80
2019-03-21T00:41:38.054Z,66.00
2019-03-21T00:44:17.894Z,63.77
2019-03-21T00:46:40.275Z,69.13
2019-03-21T00:49:10.527Z,66.50
2019-03-21T00:51:40.686Z,65.47
2019-03-21T00:54:11.282Z,65.63
2019-03-21T00:56:44.046Z,68.27
2019-03-21T00:59:14.262Z,67.50
2019-03-21T01:01:44.677Z,63.60
2019-03-21T01:04:14.859Z,64.27
2019-03-21T01:06:45.000Z,57.87
2019-03-21T01:09:15.828Z,63.50
2019-03-21T01:11:46.056Z,61.37
2019-03-21T01:14:17.335Z,68.37
2019-03-21T01:16:47.480Z,59.60
2019-03-21T01:19:17.904Z,62.10
2019-03-21T01:21:48.563Z,61.67
2019-03-21T01:24:19.187Z,60.57
2019-03-21T01:26:49.316Z,59.73
2019-03-21T01:29:20.122Z,64.30
2019-03-21T01:31:54.507Z,61.90
2019-03-21T01:34:24.518Z,71.53
2019-03-21T01:36:54.906Z,66.77
2019-03-21T01:39:25.029Z,62.87
2019-03-21T01:41:55.402Z,59.83
2019-03-21T01:44:25.548Z,66.37
2019-03-21T01:46:56.064Z,61.03
2019-03-21T01:49:26.276Z,71.87
2019-03-21T01:51:56.836Z,63.07
2019-03-21T01:54:27.797Z,63.23
2019-03-21T01:56:57.997Z,60.50
2019-03-21T01:59:28.142Z,57.80
2019-03-21T02:01:59.367Z,61.97
2019-03-21T02:04:29.844Z,58.43
2019-03-21T02:07:00.288Z,57.27
2019-03-21T02:09:30.575Z,55.53
2019-03-21T02:12:00.759Z,57.20
2019-03-21T02:14:31.000Z,51.50
2019-03-21T02:17:01.539Z,53.17
2019-03-21T02:19:31.722Z,58.10
2019-03-21T02:22:02.149Z,53.10
2019-03-21T02:24:32.335Z,51.60
2019-03-21T02:27:02.681Z,49.30
2019-03-21T02:29:32.845Z,47.60
2019-03-21T02:32:03.046Z,47.43
2019-03-21T02:34:33.670Z,49.57
2019-03-21T02:37:03.940Z,47.93
2019-03-21T02:39:34.215Z,48.00
2019-03-21T02:42:04.475Z,46.97
2019-03-21T02:44:34.911Z,48.40
2019-03-21T02:47:05.423Z,43.27
2019-03-21T02:49:35.724Z,44.00
2019-03-21T02:52:06.102Z,49.20
2019-03-21T02:54:36.218Z,44.93
2019-03-21T02:57:06.617Z,48.73
2019-03-21T02:59:36.837Z,46.50
2019-03-21T03:02:07.269Z,44.67
2019-03-21T03:04:37.705Z,44.23
2019-03-21T03:07:12.771Z,49.40
2019-03-21T03:09:43.291Z,46.47
2019-03-21T03:12:13.448Z,46.10
2019-03-21T03:14:43.808Z,43.63
2019-03-21T03:17:17.744Z,43.50
2019-03-21T03:19:47.932Z,46.50
2019-03-21T03:22:18.156Z,48.90
2019-03-21T03:24:48.261Z,53.80
2019-03-21T03:27:18.510Z,44.93
2019-03-21T03:29:48.793Z,43.70
2019-03-21T03:32:19.382Z,44.87
2019-03-21T03:34:51.806Z,46.70
2019-03-21T03:37:22.036Z,43.10
2019-03-21T03:39:53.374Z,48.80
2019-03-21T03:42:23.986Z,53.00
2019-03-21T03:44:54.218Z,47.87
2019-03-21T03:47:24.473Z,46.43
2019-03-21T03:49:54.693Z,47.23
2019-03-21T03:52:24.835Z,54.30
2019-03-21T03:54:55.207Z,51.33
2019-03-21T03:57:25.633Z,49.17
2019-03-21T03:59:55.932Z,48.63
2019-03-21T04:02:26.327Z,50.10
2019-03-21T04:04:56.646Z,49.50
2019-03-21T04:07:26.903Z,47.30
2019-03-21T04:09:57.371Z,46.13
2019-03-21T04:12:27.801Z,49.20
2019-03-21T04:14:58.168Z,45.40
2019-03-21T04:17:29.889Z,43.10
2019-03-21T04:20:00.447Z,42.23
2019-03-21T04:22:30.964Z,46.20
2019-03-21T04:25:01.182Z,46.53
2019-03-21T04:27:31.544Z,48.13
2019-03-21T04:30:01.860Z,46.83
2019-03-21T04:32:32.467Z,45.60
2019-03-21T04:35:02.896Z,41.63
2019-03-21T04:37:33.319Z,43.17
2019-03-21T04:40:03.964Z,44.53
2019-03-21T04:42:34.680Z,46.47
2019-03-21T04:45:09.547Z,43.10
2019-03-21T04:47:39.824Z,44.47
2019-03-21T04:50:13.624Z,44.57
2019-03-21T04:52:44.496Z,41.63
2019-03-21T04:55:15.360Z,37.00
2019-03-21T04:57:46.142Z,37.33
2019-03-21T05:00:20.353Z,36.43
2019-03-21T05:02:51.307Z,38.37
2019-03-21T05:05:21.842Z,34.43
2019-03-21T05:07:52.097Z,31.47
2019-03-21T05:10:22.391Z,36.90
2019-03-21T05:12:52.546Z,30.73
2019-03-21T05:15:48.103Z,33.77
2019-03-21T05:18:21.932Z,33.67
2019-03-21T05:20:52.201Z,32.03
2019-03-21T05:23:22.602Z,31.97
2019-03-21T05:25:53.011Z,34.13
2019-03-21T05:28:23.929Z,33.87
2019-03-21T05:31:00.133Z,34.87
2019-03-21T05:33:30.643Z,33.43
2019-03-21T05:36:01.188Z,38.07
2019-03-21T05:38:32.320Z,37.10
2019-03-21T05:41:09.978Z,37.67
2019-03-21T05:43:46.505Z,41.77
2019-03-21T05:46:26.133Z,41.70
2019-03-21T05:48:49.261Z,38.50
2019-03-21T05:51:19.475Z,37.13
2019-03-21T05:53:49.700Z,40.03
2019-03-21T05:56:19.942Z,40.90
2019-03-21T05:58:50.379Z,36.33
2019-03-21T06:01:20.621Z,35.63
2019-03-21T06:03:52.121Z,44.20
2019-03-21T06:06:27.292Z,38.37
2019-03-21T06:08:58.537Z,38.40
2019-03-21T06:11:29.066Z,37.97
2019-03-21T06:13:59.524Z,35.73
2019-03-21T06:16:37.586Z,40.07
2019-03-21T06:19:39.066Z,39.90
2019-03-21T06:22:43.712Z,34.07
2019-03-21T06:25:31.354Z,33.00
2019-03-21T06:28:01.840Z,38.10
2019-03-21T06:30:32.239Z,39.47
2019-03-21T06:33:02.684Z,36.77
2019-03-21T06:35:33.053Z,41.10
2019-03-21T06:38:03.550Z,41.50
2019-03-21T06:40:33.711Z,43.90
2019-03-21T06:43:04.034Z,41.27
2019-03-21T06:45:34.597Z,39.87
2019-03-21T06:48:04.992Z,41.20
2019-03-21T06:50:35.314Z,36.63
2019-03-21T06:53:07.053Z,41.20
2019-03-21T06:55:37.517Z,40.87
2019-03-21T06:58:07.906Z,34.47
2019-03-21T07:00:38.196Z,35.87
2019-03-21T07:03:08.472Z,34.40
2019-03-21T07:05:38.746Z,36.37
2019-03-21T07:08:08.953Z,38.80
2019-03-21T07:10:39.246Z,41.00
2019-03-21T07:13:09.456Z,43.80
2019-03-21T07:15:40.900Z,40.80
2019-03-21T07:18:11.039Z,40.50
2019-03-21T07:20:41.859Z,41.53
2019-03-21T07:23:12.211Z,40.60
2019-03-21T07:25:42.490Z,38.00
2019-03-21T07:28:13.001Z,41.70
2019-03-21T07:30:43.188Z,37.60
2019-03-21T07:33:13.576Z,39.73
2019-03-21T07:35:43.846Z,43.17
2019-03-21T07:38:14.843Z,40.63
2019-03-21T07:40:45.423Z,38.43
2019-03-21T07:43:16.080Z,39.37
2019-03-21T07:45:46.559Z,39.03
2019-03-21T07:48:17.413Z,36.77
2019-03-21T07:50:47.745Z,40.07
2019-03-21T07:53:18.176Z,34.67
2019-03-21T07:55:49.555Z,36.43
2019-03-21T07:58:19.969Z,41.70
2019-03-21T08:00:51.273Z,45.00
2019-03-21T08:03:21.606Z,42.93
2019-03-21T08:05:52.679Z,40.67
2019-03-21T08:08:22.822Z,43.50
2019-03-21T08:10:53.159Z,45.63
2019-03-21T08:13:23.550Z,42.63
2019-03-21T08:15:53.910Z,44.37
2019-03-21T08:18:24.145Z,42.67
2019-03-21T08:20:58.386Z,45.50
2019-03-21T08:23:26.223Z,44.77
2019-03-21T08:25:56.644Z,42.90
2019-03-21T08:28:26.970Z,41.00
2019-03-21T08:31:16.616Z,39.93
2019-03-21T08:33:47.163Z,34.53
2019-03-21T08:36:18.022Z,33.67
2019-03-21T08:38:48.233Z,31.27
2019-03-21T08:41:18.556Z,32.67
2019-03-21T08:43:48.788Z,29.43
2019-03-21T08:46:19.617Z,29.07
2019-03-21T08:48:50.159Z,32.63
2019-03-21T08:51:20.545Z,33.33
2019-03-21T08:53:50.973Z,24.10
2019-03-21T08:56:21.132Z,27.90
2019-03-21T08:58:51.341Z,26.40
2019-03-21T09:01:22.028Z,24.10
2019-03-21T09:03:52.284Z,28.27
2019-03-21T09:06:22.902Z,23.43
2019-03-21T09:08:53.254Z,28.23
2019-03-21T09:11:23.744Z,26.30
2019-03-21T09:13:53.902Z,20.97
2019-03-21T09:16:24.544Z,24.10
2019-03-21T09:18:55.502Z,20.47
2019-03-21T09:21:25.904Z,17.40
2019-03-21T09:23:57.552Z,19.03
2019-03-21T09:26:27.985Z,18.00
2019-03-21T09:28:59.546Z,20.63
2019-03-21T09:31:30.184Z,18.77
2019-03-21T09:34:00.427Z,20.53
2019-03-21T09:36:30.621Z,20.30
2019-03-21T09:39:00.881Z,19.50
2019-03-21T09:41:31.278Z,20.13
2019-03-21T09:44:01.418Z,20.90
2019-03-21T09:46:31.703Z,21.63
2019-03-21T09:49:02.229Z,20.77
2019-03-21T09:51:32.482Z,24.50
2019-03-21T09:54:09.817Z,18.00
2019-03-21T09:56:34.618Z,22.70
2019-03-21T09:59:04.845Z,21.87
2019-03-21T10:01:35.139Z,20.80
2019-03-21T10:04:05.466Z,20.33
2019-03-21T10:06:36.157Z,17.40
2019-03-21T10:09:07.859Z,20.37
2019-03-21T10:11:38.031Z,22.77
2019-03-21T10:14:09.535Z,21.53
2019-03-21T10:16:40.261Z,21.53
2019-03-21T10:19:10.479Z,22.50
2019-03-21T10:21:43.694Z,20.80
2019-03-21T10:24:12.725Z,24.73
2019-03-21T10:26:42.983Z,21.70
2019-03-21T10:29:13.494Z,21.27
2019-03-21T10:31:44.201Z,24.57
2019-03-21T10:34:16.538Z,22.43
2019-03-21T10:36:46.852Z,25.70
2019-03-21T10:39:17.234Z,25.83
2019-03-21T10:41:47.818Z,19.40
2019-03-21T10:44:17.976Z,21.60
2019-03-21T10:46:48.225Z,23.50
2019-03-21T10:49:18.417Z,24.07
2019-03-21T10:51:55.000Z,21.53
2019-03-21T10:54:23.522Z,21.77
2019-03-21T10:56:53.366Z,23.67
2019-03-21T10:59:23.684Z,24.07
2019-03-21T11:02:06.620Z,23.93
2019-03-21T11:04:27.522Z,20.50
2019-03-21T11:07:02.105Z,19.73
2019-03-21T11:09:32.591Z,23.57
2019-03-21T11:12:03.315Z,22.97
2019-03-21T11:14:34.021Z,23.40
2019-03-21T11:17:04.336Z,20.47
2019-03-21T11:19:34.936Z,21.60
2019-03-21T11:22:07.454Z,24.07
2019-03-21T11:24:37.734Z,22.50
2019-03-21T11:27:08.401Z,24.00
2019-03-21T11:29:38.607Z,21.47
2019-03-21T11:32:09.058Z,21.37
2019-03-21T11:34:39.465Z,23.27
2019-03-21T11:37:09.713Z,23.03
2019-03-21T11:39:40.174Z,22.00
2019-03-21T11:42:10.464Z,20.67
2019-03-21T11:44:41.138Z,23.20
2019-03-21T11:47:11.413Z,19.47
2019-03-21T11:49:41.664Z,17.87
2019-03-21T11:52:18.108Z,19.40
2019-03-21T11:54:43.954Z,19.40
2019-03-21T11:57:15.052Z,18.80
2019-03-21T11:59:51.549Z,19.97
2019-03-21T12:02:26.500Z,17.33
2019-03-21T12:04:51.061Z,18.17
2019-03-21T12:07:23.134Z,19.57
2019-03-21T12:09:53.435Z,18.40
2019-03-21T12:12:23.976Z,18.37
2019-03-21T12:14:55.871Z,19.67
2019-03-21T12:17:26.462Z,17.90
2019-03-21T12:19:56.932Z,18.23
2019-03-21T12:22:30.362Z,18.83
2019-03-21T12:25:00.865Z,18.53
2019-03-21T12:27:31.219Z,18.40
2019-03-21T12:30:01.592Z,22.63
2019-03-21T12:32:31.929Z,18.47
2019-03-21T12:35:05.987Z,14.73
2019-03-21T12:37:36.519Z,15.00
2019-03-21T12:40:08.008Z,14.87
2019-03-21T12:42:38.329Z,14.33
2019-03-21T12:45:09.607Z,14.27
2019-03-21T12:47:40.033Z,13.70
2019-03-21T12:50:11.188Z,14.80
2019-03-21T12:52:41.847Z,14.60
2019-03-21T12:55:12.551Z,14.13
2019-03-21T12:57:42.748Z,14.77
2019-03-21T13:00:17.957Z,16.47
2019-03-21T13:02:48.477Z,13.00
2019-03-21T13:05:27.698Z,16.50
2019-03-21T13:07:58.071Z,20.13
2019-03-21T13:10:28.821Z,16.47
2019-03-21T13:12:59.552Z,18.47
2019-03-21T13:15:30.489Z,17.30
2019-03-21T13:18:01.602Z,16.90
2019-03-21T13:20:32.160Z,17.20
2019-03-21T13:23:02.710Z,18.17
2019-03-21T13:25:32.920Z,19.57
2019-03-21T13:28:03.714Z,16.83
2019-03-21T13:30:34.721Z,16.17
2019-03-21T13:33:05.715Z,16.47
2019-03-21T13:35:36.352Z,16.70
2019-03-21T13:38:06.859Z,15.90
2019-03-21T13:40:37.844Z,17.23
2019-03-21T13:43:11.328Z,15.43
2019-03-21T13:45:41.764Z,17.50
2019-03-21T13:48:12.037Z,15.53
2019-03-21T13:50:42.424Z,16.50
2019-03-21T13:53:18.674Z,19.00
2019-03-21T13:55:44.758Z,18.30
2019-03-21T13:58:14.964Z,17.53
2019-03-21T14:00:45.397Z,17.73
2019-03-21T14:03:24.692Z,16.83
2019-03-21T14:05:47.687Z,18.10
2019-03-21T14:08:17.948Z,16.67
2019-03-21T14:10:48.169Z,17.90
2019-03-21T14:13:18.482Z,18.77
2019-03-21T14:15:48.815Z,18.00
2019-03-21T14:18:19.725Z,18.80
2019-03-21T14:20:49.869Z,16.70
2019-03-21T14:23:20.093Z,16.43
2019-03-21T14:25:50.310Z,18.90
2019-03-21T14:28:20.726Z,17.37
2019-03-21T14:30:51.139Z,15.80
2019-03-21T14:33:22.748Z,17.23
2019-03-21T14:35:52.908Z,16.67
2019-03-21T14:38:26.464Z,16.97
2019-03-21T14:40:55.262Z,16.10
2019-03-21T14:43:25.692Z,16.70
2019-03-21T14:45:55.996Z,22.20
2019-03-21T14:48:26.338Z,18.40
2019-03-21T14:50:56.701Z,16.97
2019-03-21T14:53:29.053Z,18.93
2019-03-21T14:55:59.649Z,18.10
2019-03-21T14:58:30.209Z,17.23
2019-03-21T15:01:00.709Z,19.83
2019-03-21T15:03:31.191Z,16.53
2019-03-21T15:06:01.590Z,18.67
2019-03-21T15:08:31.896Z,18.53
2019-03-21T15:11:02.501Z,16.10
2019-03-21T15:13:33.102Z,15.83
2019-03-21T15:16:03.765Z,16.67
2019-03-21T15:18:34.038Z,16.70
2019-03-21T15:21:04.249Z,15.03
2019-03-21T15:23:40.589Z,13.10
2019-03-21T15:26:06.780Z,18.90
2019-03-21T15:28:37.393Z,16.70
2019-03-21T15:31:07.806Z,15.73
2019-03-21T15:33:38.203Z,17.20
2019-03-21T15:36:09.382Z,16.07
2019-03-21T15:38:39.962Z,15.43
2019-03-21T15:41:10.346Z,16.73
2019-03-21T15:43:40.834Z,18.57
2019-03-21T15:46:11.185Z,17.47
2019-03-21T15:48:41.927Z,18.40
2019-03-21T15:51:14.386Z,18.77
2019-03-21T15:53:54.535Z,18.57
2019-03-21T15:56:17.597Z,19.10
2019-03-21T15:58:47.859Z,20.10
2019-03-21T16:01:18.318Z,19.10
2019-03-21T16:03:48.737Z,21.63
2019-03-21T16:06:19.016Z,17.67
2019-03-21T16:08:49.734Z,17.40
2019-03-21T16:11:19.956Z,19.43
2019-03-21T16:13:50.597Z,16.13
2019-03-21T16:16:20.942Z,21.17
2019-03-21T16:18:51.954Z,18.10
2019-03-21T16:21:22.257Z,20.93
2019-03-21T16:24:04.195Z,17.53
2019-03-21T16:26:25.231Z,17.83
2019-03-21T16:28:55.801Z,19.00
2019-03-21T16:31:26.532Z,16.23
2019-03-21T16:33:57.883Z,18.93
2019-03-21T16:36:28.907Z,17.70
2019-03-21T16:38:59.246Z,16.60
2019-03-21T16:41:30.400Z,17.97
2019-03-21T16:44:00.689Z,19.70
2019-03-21T16:46:30.920Z,17.17
2019-03-21T16:49:01.228Z,17.60
2019-03-21T16:51:32.001Z,18.27
2019-03-21T16:54:02.441Z,17.97
2019-03-21T16:56:32.800Z,19.87
2019-03-21T16:59:03.348Z,20.27
2019-03-21T17:01:33.761Z,19.80
2019-03-21T17:04:04.037Z,18.10
2019-03-21T17:06:34.459Z,18.53
2019-03-21T17:09:07.859Z,19.20
2019-03-21T17:11:38.386Z,17.20
2019-03-21T17:14:08.609Z,21.10
2019-03-21T17:16:38.944Z,19.37
2019-03-21T17:19:09.541Z,19.33
2019-03-21T17:21:40.901Z,20.83
2019-03-21T17:24:11.105Z,19.10
2019-03-21T17:26:41.384Z,19.80
2019-03-21T17:29:11.563Z,19.70
2019-03-21T17:31:42.076Z,22.00
2019-03-21T17:34:12.766Z,19.33
2019-03-21T17:36:43.067Z,19.73
2019-03-21T17:39:13.424Z,22.83
2019-03-21T17:41:43.941Z,19.77
2019-03-21T17:44:15.723Z,22.23
2019-03-21T17:46:46.089Z,19.73
2019-03-21T17:49:16.517Z,20.47
2019-03-21T17:51:47.338Z,19.53
2019-03-21T17:54:18.165Z,18.63
2019-03-21T17:56:48.648Z,19.33
2019-03-21T17:59:19.263Z,20.43
2019-03-21T18:01:49.909Z,18.47
2019-03-21T18:04:20.763Z,21.83
2019-03-21T18:06:51.165Z,20.60
2019-03-21T18:09:21.632Z,20.00
2019-03-21T18:11:52.172Z,22.00
2019-03-21T18:14:22.372Z,23.83
2019-03-21T18:16:53.163Z,21.27
2019-03-21T18:19:23.674Z,21.27
2019-03-21T18:21:53.862Z,23.20
2019-03-21T18:24:26.507Z,21.80
2019-03-21T18:26:57.065Z,26.40
2019-03-21T18:29:27.340Z,21.53
2019-03-21T18:31:57.716Z,21.60
2019-03-21T18:34:28.008Z,26.20
2019-03-21T18:36:58.795Z,23.10
2019-03-21T18:39:29.125Z,24.07
2019-03-21T18:42:02.378Z,22.80
2019-03-21T18:44:32.240Z,27.30
2019-03-21T18:47:10.879Z,23.97
2019-03-21T18:49:46.939Z,23.47
2019-03-21T18:52:17.666Z,23.43
2019-03-21T18:54:48.544Z,25.13
2019-03-21T18:57:19.398Z,29.13
2019-03-21T18:59:50.304Z,32.67
2019-03-21T19:02:20.664Z,29.70
2019-03-21T19:04:51.414Z,26.60
2019-03-21T19:07:22.063Z,27.70
2019-03-21T19:09:52.472Z,24.87
2019-03-21T19:12:23.207Z,27.37
2019-03-21T19:14:54.213Z,30.07
2019-03-21T19:17:24.782Z,29.17
2019-03-21T19:19:55.414Z,28.40
2019-03-21T19:22:28.330Z,28.10
2019-03-21T19:24:58.737Z,24.57
2019-03-21T19:27:29.373Z,27.60
2019-03-21T19:30:24.346Z,25.10
2019-03-21T19:32:45.857Z,26.60
2019-03-21T19:35:23.394Z,27.63
2019-03-21T19:37:59.569Z,27.67
2019-03-21T19:40:30.512Z,24.40
2019-03-21T19:43:26.615Z,26.80
2019-03-21T19:45:59.646Z,27.03
2019-03-21T19:48:33.979Z,31.30
2019-03-21T19:51:11.937Z,24.93
2019-03-21T19:53:58.384Z,23.30
2019-03-21T19:56:29.133Z,29.50
2019-03-21T19:59:01.148Z,26.77
2019-03-21T20:01:31.754Z,25.20
2019-03-21T20:04:02.023Z,25.70
2019-03-21T20:06:32.508Z,24.80
2019-03-21T20:09:14.497Z,25.40
2019-03-21T20:11:45.301Z,25.83
2019-03-21T20:14:17.533Z,24.57
2019-03-21T20:16:48.046Z,24.43
2019-03-21T20:19:19.800Z,23.30
2019-03-21T20:21:51.323Z,28.60
2019-03-21T20:24:21.732Z,28.40
2019-03-21T20:26:52.081Z,26.13
2019-03-21T20:29:22.488Z,29.83
2019-03-21T20:31:52.933Z,27.60
2019-03-21T20:34:24.387Z,28.23
2019-03-21T20:36:54.573Z,27.40
2019-03-21T20:39:24.969Z,26.30
2019-03-21T20:41:55.289Z,29.13
2019-03-21T20:44:25.838Z,28.77
2019-03-21T20:46:56.132Z,26.97
2019-03-21T20:49:26.840Z,25.27
2019-03-21T20:51:57.103Z,24.60
2019-03-21T20:54:27.588Z,26.90
2019-03-21T20:56:57.990Z,26.17
2019-03-21T20:59:28.187Z,28.00
2019-03-21T21:02:02.890Z,25.27
2019-03-21T21:04:30.659Z,24.47
2019-03-21T21:07:00.875Z,27.97
2019-03-21T21:09:31.149Z,27.80
2019-03-21T21:12:01.680Z,24.70
2019-03-21T21:14:31.991Z,27.50
2019-03-21T21:17:02.246Z,26.53
2019-03-21T21:19:40.577Z,28.93
2019-03-21T21:22:12.894Z,26.40
2019-03-21T21:24:43.910Z,27.87
2019-03-21T21:27:14.636Z,25.27
2019-03-21T21:29:51.936Z,26.30
2019-03-21T21:32:22.198Z,29.63
2019-03-21T21:34:54.615Z,25.17
2019-03-21T21:37:24.604Z,29.50
2019-03-21T21:39:55.242Z,25.03
2019-03-21T21:42:26.292Z,30.00
2019-03-21T21:44:57.852Z,24.83
2019-03-21T21:47:28.684Z,26.50
2019-03-21T21:50:00.013Z,24.93
2019-03-21T21:52:41.537Z,22.67
2019-03-21T21:55:05.448Z,26.43
2019-03-21T21:57:35.641Z,24.93
2019-03-21T22:00:12.064Z,25.93
2019-03-21T22:02:42.244Z,24.50
2019-03-21T22:05:12.715Z,25.53
2019-03-21T22:07:42.888Z,27.10
2019-03-21T22:10:13.701Z,23.93
2019-03-21T22:12:43.888Z,24.03
2019-03-21T22:15:14.216Z,22.20
2019-03-21T22:17:44.541Z,22.57
2019-03-21T22:20:16.279Z,24.50
2019-03-21T22:22:46.733Z,26.57
2019-03-21T22:25:17.078Z,25.10
2019-03-21T22:27:47.193Z,28.07
2019-03-21T22:30:17.712Z,23.57
2019-03-21T22:32:48.275Z,25.07
2019-03-21T22:35:18.510Z,22.97
2019-03-21T22:37:48.809Z,24.07
2019-03-21T22:40:19.420Z,26.60
2019-03-21T22:42:49.624Z,25.37
2019-03-21T22:45:20.144Z,26.27
2019-03-21T22:47:50.906Z,24.10
2019-03-21T22:50:21.574Z,24.50
2019-03-21T22:52:51.802Z,25.60
2019-03-21T22:55:22.128Z,26.57
2019-03-21T22:57:52.427Z,27.23
2019-03-21T23:00:24.508Z,25.20
2019-03-21T23:02:54.969Z,23.83
2019-03-21T23:05:25.965Z,26.10
2019-03-21T23:07:56.108Z,26.20
2019-03-21T23:10:26.312Z,26.43
2019-03-21T23:12:56.440Z,26.00
2019-03-21T23:15:26.724Z,26.27
2019-03-21T23:17:56.866Z,27.57
2019-03-21T23:20:26.965Z,25.10
2019-03-21T23:22:57.089Z,25.57
2019-03-21T23:25:27.474Z,25.70
2019-03-21T23:27:57.567Z,25.93
2019-03-21T23:30:27.707Z,28.47
2019-03-21T23:32:57.844Z,28.93
2019-03-21T23:35:28.124Z,29.33
2019-03-21T23:37:58.544Z,26.47
2019-03-21T23:40:28.994Z,27.77
2019-03-21T23:42:59.160Z,28.03
2019-03-21T23:45:29.352Z,28.97
2019-03-21T23:47:59.556Z,29.43
2019-03-21T23:50:29.661Z,30.50
2019-03-21T23:53:00.917Z,30.50
2019-03-21T23:55:31.297Z,31.57
2019-03-21T23:58:01.555Z,30.43
